createdAt,value
2018-05-25T00:01:00.014Z,73.96
2018-05-25T00:03:28.841Z,73.67
2018-05-25T00:05:57.698Z,73.95
2018-05-25T00:08:26.546Z,73.80
2018-05-25T00:10:55.504Z,72.85
2018-05-25T00:13:24.341Z,73.38
2018-05-25T00:15:53.191Z,73.93
2018-05-25T00:18:22.034Z,73.69
2018-05-25T00:20:50.875Z,73.48
2018-05-25T00:23:19.729Z,73.30
2018-05-25T00:25:48.571Z,73.20
2018-05-25T00:28:17.546Z,72.97
2018-05-25T00:30:46.376Z,73.03
2018-05-25T00:33:15.240Z,73.91
2018-05-25T00:35:44.073Z,73.75
2018-05-25T00:38:12.917Z,73.60
2018-05-25T00:40:41.764Z,73.77
2018-05-25T00:43:10.642Z,73.39
2018-05-25T00:45:39.474Z,73.41
2018-05-25T00:48:08.331Z,73.12
2018-05-25T00:50:37.194Z,72.86
2018-05-25T00:53:06.028Z,71.69
2018-05-25T00:55:40.989Z,72.72
2018-05-25T00:58:09.831Z,72.41
2018-05-25T01:00:38.679Z,72.40
2018-05-25T01:03:07.506Z,72.38
2018-05-25T01:05:36.351Z,72.21
2018-05-25T01:08:05.201Z,72.00
2018-05-25T01:10:33.994Z,72.32
2018-05-25T01:13:02.852Z,72.55
2018-05-25T01:15:31.695Z,72.42
2018-05-25T01:18:00.564Z,72.35
2018-05-25T01:20:29.390Z,72.25
2018-05-25T01:22:58.283Z,72.54
2018-05-25T01:25:27.115Z,72.47
2018-05-25T01:27:56.018Z,72.70
2018-05-25T01:30:24.862Z,72.78
2018-05-25T01:32:53.724Z,72.86
2018-05-25T01:35:22.571Z,72.80
2018-05-25T01:37:51.402Z,72.98
2018-05-25T01:40:20.266Z,72.99
2018-05-25T01:42:49.120Z,72.81
2018-05-25T01:45:18.106Z,72.81
2018-05-25T01:47:46.961Z,73.39
2018-05-25T01:50:15.814Z,73.64
2018-05-25T01:52:44.655Z,73.62
2018-05-25T01:55:13.480Z,73.43
2018-05-25T01:57:42.333Z,73.82
2018-05-25T02:00:11.164Z,73.85
2018-05-25T02:02:40.011Z,73.77
2018-05-25T02:05:08.859Z,74.03
2018-05-25T02:07:37.702Z,74.02
2018-05-25T02:10:06.551Z,74.30
2018-05-25T02:12:35.363Z,74.27
2018-05-25T02:15:04.228Z,74.48
2018-05-25T02:17:33.043Z,74.17
2018-05-25T02:20:01.906Z,74.05
2018-05-25T02:22:30.723Z,74.18
2018-05-25T02:24:59.599Z,74.57
2018-05-25T02:27:28.457Z,74.42
2018-05-25T02:29:57.338Z,74.66
2018-05-25T02:32:26.182Z,74.75
2018-05-25T02:34:55.074Z,74.64
2018-05-25T02:37:23.860Z,74.54
2018-05-25T02:39:52.706Z,74.74
2018-05-25T02:42:21.534Z,75.14
2018-05-25T02:44:50.393Z,75.12
2018-05-25T02:47:19.215Z,75.35
2018-05-25T02:49:48.067Z,75.14
2018-05-25T02:52:16.892Z,74.27
2018-05-25T02:54:45.758Z,75.38
2018-05-25T02:57:14.604Z,75.54
2018-05-25T02:59:43.464Z,74.65
2018-05-25T03:02:12.304Z,75.70
2018-05-25T03:04:41.158Z,75.27
2018-05-25T03:07:10.029Z,74.80
2018-05-25T03:09:38.893Z,75.07
2018-05-25T03:12:07.727Z,75.27
2018-05-25T03:14:36.590Z,75.66
2018-05-25T03:17:05.446Z,75.78
2018-05-25T03:19:34.277Z,75.66
2018-05-25T03:22:03.099Z,75.87
2018-05-25T03:24:31.980Z,75.68
2018-05-25T03:27:00.832Z,76.38
2018-05-25T03:29:29.665Z,76.51
2018-05-25T03:31:58.560Z,76.76
2018-05-25T03:34:27.411Z,76.71
2018-05-25T03:36:56.291Z,76.54
2018-05-25T03:39:25.131Z,76.56
2018-05-25T03:41:53.997Z,76.43
2018-05-25T03:44:22.859Z,76.36
2018-05-25T03:46:51.707Z,76.11
2018-05-25T03:49:20.553Z,76.17
2018-05-25T03:51:49.434Z,76.12
2018-05-25T03:54:18.243Z,76.30
2018-05-25T03:56:47.067Z,76.00
2018-05-25T04:00:11.958Z,76.05
2018-05-25T04:02:40.752Z,76.16
2018-05-25T04:05:09.603Z,75.65
2018-05-25T04:07:38.510Z,77.01
2018-05-25T04:10:07.382Z,77.09
2018-05-25T04:12:36.236Z,76.69
2018-05-25T04:15:05.074Z,76.50
2018-05-25T04:17:33.905Z,76.71
2018-05-25T04:20:02.773Z,76.43
2018-05-25T04:22:31.612Z,76.35
2018-05-25T04:25:00.469Z,75.92
2018-05-25T04:27:29.320Z,76.02
2018-05-25T04:29:58.230Z,76.06
2018-05-25T04:32:27.099Z,76.23
2018-05-25T04:34:55.909Z,76.29
2018-05-25T04:37:24.774Z,75.66
2018-05-25T04:39:53.602Z,76.37
2018-05-25T04:42:22.474Z,76.48
2018-05-25T04:44:51.352Z,76.66
2018-05-25T04:47:20.210Z,77.11
2018-05-25T04:49:49.051Z,75.96
2018-05-25T04:52:17.925Z,77.21
2018-05-25T04:54:46.738Z,76.71
2018-05-25T04:57:15.595Z,75.12
2018-05-25T04:59:44.402Z,76.36
2018-05-25T05:02:13.285Z,76.59
2018-05-25T05:04:42.148Z,76.55
2018-05-25T05:07:11.025Z,76.64
2018-05-25T05:09:39.872Z,76.78
2018-05-25T05:12:08.747Z,76.31
2018-05-25T05:14:37.625Z,76.67
2018-05-25T05:17:06.456Z,76.50
2018-05-25T05:19:35.305Z,76.17
2018-05-25T05:22:04.143Z,76.26
2018-05-25T05:24:33.079Z,76.14
2018-05-25T05:27:01.893Z,75.96
2018-05-25T05:29:30.775Z,75.78
2018-05-25T05:31:59.620Z,75.74
2018-05-25T05:34:28.473Z,75.52
2018-05-25T05:36:57.300Z,75.39
2018-05-25T05:39:26.130Z,75.96
2018-05-25T05:41:54.989Z,75.34
2018-05-25T05:44:23.825Z,75.13
2018-05-25T05:46:52.652Z,74.71
2018-05-25T05:49:21.489Z,74.84
2018-05-25T05:51:50.327Z,74.60
2018-05-25T05:54:19.153Z,74.59
2018-05-25T05:56:47.981Z,74.43
2018-05-25T05:59:16.823Z,74.09
2018-05-25T06:01:45.641Z,73.79
2018-05-25T06:04:14.474Z,73.49
2018-05-25T06:06:43.009Z,73.42
2018-05-25T06:09:11.877Z,72.84
2018-05-25T06:11:40.681Z,72.27
2018-05-25T06:14:09.523Z,71.13
2018-05-25T06:16:38.385Z,71.50
2018-05-25T06:19:07.229Z,71.49
2018-05-25T06:21:36.049Z,71.00
2018-05-25T06:24:04.914Z,70.60
2018-05-25T06:26:33.841Z,70.18
2018-05-25T06:29:02.688Z,69.54
2018-05-25T06:31:31.536Z,68.86
2018-05-25T06:34:00.390Z,67.82
2018-05-25T06:36:29.533Z,67.37
2018-05-25T06:38:58.364Z,65.43
2018-05-25T06:41:27.198Z,64.54
2018-05-25T06:43:56.033Z,63.40
2018-05-25T06:46:24.863Z,63.85
2018-05-25T06:48:53.757Z,63.13
2018-05-25T06:51:22.601Z,63.34
2018-05-25T06:53:51.459Z,61.54
2018-05-25T06:56:20.302Z,60.71
2018-05-25T06:58:49.171Z,59.78
2018-05-25T07:01:23.884Z,54.95
2018-05-25T07:03:52.757Z,50.75
2018-05-25T07:06:22.744Z,46.78
2018-05-25T07:08:51.627Z,44.22
2018-05-25T07:11:20.617Z,41.47
2018-05-25T07:13:49.503Z,40.42
2018-05-25T07:16:18.454Z,39.58
2018-05-25T07:18:47.699Z,38.33
2018-05-25T07:21:16.589Z,37.33
2018-05-25T07:23:45.470Z,35.43
2018-05-25T07:26:14.459Z,35.73
2018-05-25T07:28:43.329Z,35.91
2018-05-25T07:31:12.662Z,35.27
2018-05-25T07:33:41.699Z,33.29
2018-05-25T07:36:10.549Z,32.89
2018-05-25T07:38:39.456Z,32.38
2018-05-25T07:41:08.367Z,32.66
2018-05-25T07:43:37.357Z,30.98
2018-05-25T07:46:06.317Z,30.80
2018-05-25T07:48:35.392Z,30.37
2018-05-25T07:51:04.310Z,30.83
2018-05-25T07:53:33.503Z,32.01
2018-05-25T07:56:02.583Z,32.45
2018-05-25T07:58:31.678Z,33.66
2018-05-25T08:01:00.723Z,35.51
2018-05-25T08:03:29.756Z,37.02
2018-05-25T08:05:58.606Z,39.01
2018-05-25T08:08:27.872Z,38.64
2018-05-25T08:10:56.904Z,35.48
2018-05-25T08:13:26.611Z,34.29
2018-05-25T08:15:55.742Z,32.87
2018-05-25T08:18:24.923Z,33.39
2018-05-25T08:20:53.791Z,34.27
2018-05-25T08:23:22.720Z,34.64
2018-05-25T08:25:51.606Z,34.31
2018-05-25T08:28:20.482Z,35.55
2018-05-25T08:30:49.380Z,35.63
2018-05-25T08:33:21.637Z,34.61
2018-05-25T08:35:50.669Z,38.02
2018-05-25T08:38:19.799Z,39.00
2018-05-25T08:40:48.916Z,40.26
2018-05-25T08:43:18.164Z,39.52
2018-05-25T08:45:46.985Z,38.56
2018-05-25T08:48:16.065Z,39.09
2018-05-25T08:50:45.031Z,41.29
2018-05-25T08:53:13.962Z,38.45
2018-05-25T08:55:42.837Z,36.81
2018-05-25T08:58:11.865Z,36.29
2018-05-25T09:00:40.747Z,35.08
2018-05-25T09:03:09.731Z,34.13
2018-05-25T09:05:38.746Z,32.00
2018-05-25T09:08:07.624Z,31.99
2018-05-25T09:10:36.514Z,31.20
2018-05-25T09:13:05.619Z,30.72
2018-05-25T09:15:34.779Z,29.76
2018-05-25T09:18:03.792Z,30.34
2018-05-25T09:20:33.117Z,29.78
2018-05-25T09:23:02.161Z,29.46
2018-05-25T09:25:31.247Z,30.12
2018-05-25T09:28:00.368Z,30.60
2018-05-25T09:30:29.722Z,30.35
2018-05-25T09:32:58.613Z,27.85
2018-05-25T09:35:27.667Z,28.30
2018-05-25T09:37:56.634Z,29.44
2018-05-25T09:40:25.767Z,29.37
2018-05-25T09:42:54.834Z,29.05
2018-05-25T09:45:23.658Z,33.30
2018-05-25T09:47:52.485Z,33.62
2018-05-25T09:50:21.535Z,33.09
2018-05-25T09:52:51.200Z,33.36
2018-05-25T09:55:20.227Z,34.32
2018-05-25T09:57:55.587Z,35.02
2018-05-25T10:00:25.699Z,35.93
2018-05-25T10:02:54.560Z,36.18
2018-05-25T10:05:23.517Z,35.96
2018-05-25T10:07:52.460Z,37.84
2018-05-25T10:10:21.584Z,37.84
2018-05-25T10:12:50.561Z,37.93
2018-05-25T10:15:19.553Z,37.50
2018-05-25T10:17:48.489Z,37.21
2018-05-25T10:20:17.421Z,39.85
2018-05-25T10:22:46.235Z,39.69
2018-05-25T10:25:15.188Z,40.90
2018-05-25T10:27:44.122Z,40.85
2018-05-25T10:30:13.101Z,40.63
2018-05-25T10:32:42.090Z,41.49
2018-05-25T10:35:11.039Z,42.93
2018-05-25T10:37:39.929Z,43.81
2018-05-25T10:40:09.020Z,43.59
2018-05-25T10:42:37.978Z,43.88
2018-05-25T10:45:07.055Z,44.67
2018-05-25T10:47:35.989Z,44.03
2018-05-25T10:50:04.868Z,43.63
2018-05-25T10:52:34.858Z,43.70
2018-05-25T10:55:03.969Z,42.93
2018-05-25T10:57:32.866Z,43.22
2018-05-25T11:00:01.714Z,42.39
2018-05-25T11:02:30.630Z,42.16
2018-05-25T11:04:59.512Z,40.82
2018-05-25T11:07:28.334Z,39.24
2018-05-25T11:09:57.303Z,37.72
2018-05-25T11:12:26.199Z,36.56
2018-05-25T11:14:55.048Z,37.31
2018-05-25T11:17:23.973Z,36.64
2018-05-25T11:19:52.875Z,36.60
2018-05-25T11:22:21.866Z,35.69
2018-05-25T11:24:50.750Z,36.75
2018-05-25T11:27:19.590Z,35.84
2018-05-25T11:29:48.433Z,33.84
2018-05-25T11:32:17.313Z,33.44
2018-05-25T11:34:46.149Z,33.53
2018-05-25T11:37:15.001Z,31.06
2018-05-25T11:39:43.850Z,33.99
2018-05-25T11:42:12.683Z,34.37
2018-05-25T11:44:41.671Z,35.07
2018-05-25T11:47:10.658Z,35.32
2018-05-25T11:49:39.722Z,35.75
2018-05-25T11:52:08.679Z,34.52
2018-05-25T11:54:37.637Z,33.44
2018-05-25T11:57:06.557Z,33.32
2018-05-25T11:59:35.953Z,34.10
2018-05-25T12:02:05.030Z,35.55
2018-05-25T12:04:34.097Z,36.42
2018-05-25T12:07:02.961Z,36.84
2018-05-25T12:09:31.889Z,38.22
2018-05-25T12:12:00.798Z,40.16
2018-05-25T12:14:29.678Z,40.33
2018-05-25T12:16:58.573Z,40.84
2018-05-25T12:19:27.438Z,41.08
2018-05-25T12:21:56.446Z,41.29
2018-05-25T12:24:25.271Z,42.79
2018-05-25T12:26:54.934Z,42.21
2018-05-25T12:29:23.763Z,41.74
2018-05-25T12:31:52.632Z,41.61
2018-05-25T12:34:21.545Z,41.75
2018-05-25T12:36:50.434Z,42.20
2018-05-25T12:39:19.303Z,41.46
2018-05-25T12:41:48.200Z,41.79
2018-05-25T12:44:17.199Z,40.98
2018-05-25T12:46:46.102Z,39.82
2018-05-25T12:49:18.194Z,38.71
2018-05-25T12:51:47.145Z,37.55
2018-05-25T12:54:16.053Z,37.01
2018-05-25T12:56:44.884Z,36.12
2018-05-25T12:59:13.719Z,35.92
2018-05-25T13:01:42.572Z,36.13
2018-05-25T13:04:11.416Z,35.64
2018-05-25T13:06:40.295Z,35.81
2018-05-25T13:09:09.416Z,35.39
2018-05-25T13:11:38.359Z,36.04
2018-05-25T13:14:07.350Z,34.34
2018-05-25T13:16:36.216Z,33.96
2018-05-25T13:19:05.086Z,33.97
2018-05-25T13:21:33.940Z,34.42
2018-05-25T13:24:02.797Z,35.46
2018-05-25T13:26:31.783Z,35.41
2018-05-25T13:29:00.694Z,34.73
2018-05-25T13:31:29.503Z,34.12
2018-05-25T13:33:59.622Z,34.61
2018-05-25T13:36:28.503Z,35.00
2018-05-25T13:38:57.662Z,35.54
2018-05-25T13:41:26.668Z,35.56
2018-05-25T13:43:55.649Z,36.44
2018-05-25T13:46:24.515Z,36.34
2018-05-25T13:48:53.472Z,35.75
2018-05-25T13:51:22.337Z,36.62
2018-05-25T13:53:51.207Z,36.06
2018-05-25T13:56:23.190Z,36.72
2018-05-25T13:58:52.063Z,37.54
2018-05-25T14:01:20.896Z,38.41
2018-05-25T14:03:49.766Z,38.64
2018-05-25T14:06:18.613Z,39.22
2018-05-25T14:08:47.444Z,37.50
2018-05-25T14:11:16.259Z,38.51
2018-05-25T14:13:45.112Z,39.10
2018-05-25T14:16:13.966Z,38.51
2018-05-25T14:18:42.856Z,38.34
2018-05-25T14:21:11.700Z,38.76
2018-05-25T14:23:40.550Z,38.82
2018-05-25T14:26:09.417Z,39.13
2018-05-25T14:28:38.251Z,39.09
2018-05-25T14:31:07.107Z,39.95
2018-05-25T14:33:35.934Z,40.07
2018-05-25T14:36:04.808Z,40.13
2018-05-25T14:38:33.633Z,40.34
2018-05-25T14:41:02.810Z,41.00
2018-05-25T14:43:31.788Z,41.02
2018-05-25T14:46:00.721Z,40.02
2018-05-25T14:48:29.597Z,40.12
2018-05-25T14:50:58.651Z,41.17
2018-05-25T14:53:27.654Z,40.75
2018-05-25T14:55:56.598Z,41.40
2018-05-25T14:58:25.461Z,40.56
2018-05-25T15:00:54.288Z,39.80
2018-05-25T15:03:29.626Z,40.39
2018-05-25T15:05:58.464Z,40.65
2018-05-25T15:08:27.321Z,40.53
2018-05-25T15:10:56.154Z,40.97
2018-05-25T15:13:24.981Z,41.36
2018-05-25T15:15:53.862Z,41.76
2018-05-25T15:18:22.698Z,41.65
2018-05-25T15:20:51.582Z,41.41
2018-05-25T15:23:20.419Z,42.11
2018-05-25T15:25:49.458Z,42.54
2018-05-25T15:28:18.292Z,42.16
2018-05-25T15:30:47.184Z,41.31
2018-05-25T15:33:16.003Z,42.39
2018-05-25T15:35:44.807Z,43.07
2018-05-25T15:38:13.728Z,42.71
2018-05-25T15:40:42.576Z,42.23
2018-05-25T15:43:11.427Z,42.59
2018-05-25T15:45:40.278Z,42.58
2018-05-25T15:49:03.981Z,42.09
2018-05-25T15:51:32.812Z,42.55
2018-05-25T15:54:01.676Z,42.17
2018-05-25T15:56:30.518Z,39.57
2018-05-25T15:58:59.436Z,40.79
2018-05-25T16:01:28.221Z,41.36
2018-05-25T16:03:57.078Z,42.09
2018-05-25T16:06:25.937Z,40.18
2018-05-25T16:08:54.763Z,41.05
2018-05-25T16:11:23.617Z,40.74
2018-05-25T16:13:52.462Z,42.55
2018-05-25T16:16:21.322Z,40.45
2018-05-25T16:18:50.141Z,40.58
2018-05-25T16:21:19.015Z,41.14
2018-05-25T16:23:47.829Z,40.14
2018-05-25T16:26:17.053Z,39.57
2018-05-25T16:28:45.911Z,39.17
2018-05-25T16:31:14.731Z,39.53
2018-05-25T16:33:43.621Z,38.96
2018-05-25T16:36:12.463Z,38.72
2018-05-25T16:38:41.302Z,39.10
2018-05-25T16:41:10.155Z,40.28
2018-05-25T16:43:39.008Z,40.16
2018-05-25T16:46:07.904Z,38.54
2018-05-25T16:48:36.675Z,38.82
2018-05-25T16:51:05.697Z,38.22
2018-05-25T16:53:34.518Z,39.01
2018-05-25T16:56:03.413Z,38.10
2018-05-25T16:58:32.283Z,38.35
2018-05-25T17:01:01.113Z,39.16
2018-05-25T17:03:29.963Z,38.25
2018-05-25T17:05:58.804Z,39.01
2018-05-25T17:08:27.638Z,40.14
2018-05-25T17:10:56.494Z,41.17
2018-05-25T17:13:25.313Z,42.31
2018-05-25T17:15:54.177Z,42.72
2018-05-25T17:18:22.999Z,43.33
2018-05-25T17:20:51.865Z,43.04
2018-05-25T17:23:20.683Z,42.92
2018-05-25T17:25:49.517Z,43.16
2018-05-25T17:28:18.399Z,42.87
2018-05-25T17:30:47.232Z,43.26
2018-05-25T17:33:16.249Z,43.34
2018-05-25T17:35:45.124Z,43.09
2018-05-25T17:38:13.929Z,43.36
2018-05-25T17:40:42.894Z,43.84
2018-05-25T17:43:11.775Z,44.21
2018-05-25T17:45:40.592Z,44.44
2018-05-25T17:48:09.779Z,44.94
2018-05-25T17:50:38.676Z,45.30
2018-05-25T17:53:07.866Z,45.86
2018-05-25T17:55:43.594Z,46.66
2018-05-25T17:58:14.507Z,47.38
2018-05-25T18:00:46.119Z,47.75
2018-05-25T18:03:25.980Z,48.51
2018-05-25T18:06:04.274Z,49.22
2018-05-25T18:08:33.158Z,49.91
2018-05-25T18:11:02.049Z,50.18
2018-05-25T18:13:30.906Z,50.37
2018-05-25T18:15:59.795Z,50.64
2018-05-25T18:18:28.682Z,50.86
2018-05-25T18:20:57.624Z,51.09
2018-05-25T18:23:26.454Z,51.48
2018-05-25T18:25:55.300Z,51.51
2018-05-25T18:28:24.172Z,51.87
2018-05-25T18:30:53.077Z,51.11
2018-05-25T18:33:21.994Z,51.68
2018-05-25T18:35:50.852Z,51.76
2018-05-25T18:38:19.688Z,51.90
2018-05-25T18:40:48.548Z,51.82
2018-05-25T18:43:17.535Z,51.97
2018-05-25T18:45:46.410Z,52.48
2018-05-25T18:48:15.635Z,52.78
2018-05-25T18:50:44.477Z,52.46
2018-05-25T18:53:13.315Z,52.55
2018-05-25T18:55:42.176Z,52.88
2018-05-25T18:58:11.054Z,52.73
2018-05-25T19:00:39.882Z,53.14
2018-05-25T19:03:08.741Z,53.61
2018-05-25T19:05:37.588Z,53.50
2018-05-25T19:08:06.438Z,53.94
2018-05-25T19:10:35.296Z,54.21
2018-05-25T19:13:04.228Z,54.65
2018-05-25T19:15:33.108Z,55.03
2018-05-25T19:18:09.163Z,55.49
2018-05-25T19:20:38.004Z,56.12
2018-05-25T19:23:06.848Z,56.48
2018-05-25T19:25:35.729Z,56.62
2018-05-25T19:28:04.605Z,56.86
2018-05-25T19:30:33.433Z,56.99
2018-05-25T19:33:02.511Z,57.64
2018-05-25T19:35:31.369Z,57.23
2018-05-25T19:38:00.238Z,57.74
2018-05-25T19:40:36.689Z,58.39
2018-05-25T19:43:05.524Z,58.45
2018-05-25T19:45:34.352Z,58.49
2018-05-25T19:48:03.189Z,58.88
2018-05-25T19:50:32.079Z,59.05
2018-05-25T19:53:00.954Z,59.19
2018-05-25T19:55:29.944Z,59.30
2018-05-25T19:57:58.803Z,59.59
2018-05-25T20:00:27.663Z,59.63
2018-05-25T20:02:59.620Z,59.52
2018-05-25T20:05:28.473Z,60.61
2018-05-25T20:07:57.377Z,60.40
2018-05-25T20:10:26.244Z,60.42
2018-05-25T20:12:55.079Z,60.55
2018-05-25T20:15:23.917Z,61.20
2018-05-25T20:17:52.820Z,61.36
2018-05-25T20:20:21.698Z,61.76
2018-05-25T20:22:50.537Z,61.67
2018-05-25T20:25:19.380Z,61.78
2018-05-25T20:27:48.249Z,61.64
2018-05-25T20:30:17.130Z,61.69
2018-05-25T20:32:46.047Z,61.85
2018-05-25T20:35:14.926Z,62.03
2018-05-25T20:37:43.740Z,62.74
2018-05-25T20:40:12.586Z,62.58
2018-05-25T20:42:41.465Z,63.14
2018-05-25T20:45:10.293Z,63.89
2018-05-25T20:47:39.340Z,64.27
2018-05-25T20:50:08.166Z,64.30
2018-05-25T20:52:37.050Z,64.85
2018-05-25T20:55:05.902Z,64.38
2018-05-25T20:57:34.756Z,63.93
2018-05-25T21:00:03.627Z,64.45
2018-05-25T21:02:32.511Z,64.29
2018-05-25T21:05:01.344Z,64.05
2018-05-25T21:07:30.211Z,63.67
2018-05-25T21:09:59.061Z,64.69
2018-05-25T21:12:27.895Z,63.74
2018-05-25T21:14:56.771Z,64.66
2018-05-25T21:17:25.691Z,64.76
2018-05-25T21:19:54.561Z,65.04
2018-05-25T21:22:23.780Z,65.36
2018-05-25T21:24:52.687Z,65.10
2018-05-25T21:27:21.505Z,65.27
2018-05-25T21:29:50.331Z,65.00
2018-05-25T21:32:19.191Z,66.00
2018-05-25T21:34:48.071Z,66.36
2018-05-25T21:37:16.946Z,66.58
2018-05-25T21:39:45.754Z,66.73
2018-05-25T21:42:14.641Z,66.81
2018-05-25T21:44:43.465Z,67.43
2018-05-25T21:47:12.296Z,67.32
2018-05-25T21:49:41.145Z,66.57
2018-05-25T21:52:10.028Z,67.46
2018-05-25T21:54:38.823Z,67.53
2018-05-25T21:57:07.655Z,66.33
2018-05-25T21:59:36.495Z,67.40
2018-05-25T22:02:05.340Z,67.44
2018-05-25T22:04:34.234Z,67.83
2018-05-25T22:07:03.085Z,68.10
2018-05-25T22:09:31.946Z,68.31
2018-05-25T22:12:00.820Z,68.38
2018-05-25T22:14:29.645Z,68.21
2018-05-25T22:16:58.465Z,68.50
2018-05-25T22:19:27.303Z,68.68
2018-05-25T22:21:56.158Z,68.73
2018-05-25T22:24:25.016Z,68.76
2018-05-25T22:26:53.888Z,68.74
2018-05-25T22:29:22.755Z,68.86
2018-05-25T22:31:51.582Z,69.20
2018-05-25T22:34:20.459Z,69.42
2018-05-25T22:36:49.275Z,69.22
2018-05-25T22:39:18.121Z,68.34
2018-05-25T22:41:50.699Z,68.84
2018-05-25T22:44:56.188Z,68.93
2018-05-25T22:48:01.507Z,69.02
2018-05-25T22:51:07.071Z,69.14
2018-05-25T22:54:09.060Z,69.17
2018-05-25T22:56:37.969Z,69.28
2018-05-25T22:59:06.829Z,69.36
2018-05-25T23:01:35.703Z,69.34
2018-05-25T23:04:04.574Z,69.35
2018-05-25T23:06:33.409Z,68.80
2018-05-25T23:09:02.253Z,69.53
2018-05-25T23:11:31.087Z,69.56
2018-05-25T23:13:59.948Z,69.60
2018-05-25T23:16:28.866Z,69.43
2018-05-25T23:18:57.782Z,69.73
2018-05-25T23:21:26.642Z,69.93
2018-05-25T23:23:55.574Z,69.65
2018-05-25T23:26:24.428Z,69.98
2018-05-25T23:28:53.732Z,70.08
2018-05-25T23:31:22.600Z,70.14
2018-05-25T23:33:51.420Z,70.48
2018-05-25T23:36:20.284Z,70.49
2018-05-25T23:38:49.174Z,70.54
2018-05-25T23:41:18.072Z,70.39
2018-05-25T23:43:46.942Z,70.47
2018-05-25T23:46:15.751Z,70.38
2018-05-25T23:48:44.635Z,69.68
2018-05-25T23:51:13.478Z,70.80
2018-05-25T23:53:42.357Z,70.81
2018-05-25T23:56:11.203Z,71.09
2018-05-25T23:58:40.079Z,70.81
